createdAt,value
2018-09-28T00:00:34.841Z,12.60
2018-09-28T00:03:03.424Z,12.50
2018-09-28T00:05:31.826Z,12.50
2018-09-28T00:08:00.238Z,12.40
2018-09-28T00:10:28.696Z,12.40
2018-09-28T00:12:57.374Z,12.40
2018-09-28T00:15:25.879Z,12.40
2018-09-28T00:17:54.195Z,12.50
2018-09-28T00:20:22.591Z,12.40
2018-09-28T00:22:51.466Z,12.40
2018-09-28T00:25:20.370Z,12.40
2018-09-28T00:27:49.972Z,12.30
2018-09-28T00:30:18.272Z,12.30
2018-09-28T00:32:46.791Z,12.30
2018-09-28T00:35:15.204Z,12.30
2018-09-28T00:37:43.523Z,12.30
2018-09-28T00:40:11.798Z,12.30
2018-09-28T00:45:08.428Z,12.40
2018-09-28T00:47:37.020Z,12.40
2018-09-28T00:50:05.486Z,12.40
2018-09-28T00:52:34.057Z,12.30
2018-09-28T00:55:03.640Z,12.20
2018-09-28T00:57:32.022Z,12.30
2018-09-28T01:00:00.668Z,12.20
2018-09-28T01:02:29.013Z,12.20
2018-09-28T01:04:57.656Z,12.20
2018-09-28T01:07:26.243Z,12.20
2018-09-28T01:09:55.481Z,12.20
2018-09-28T01:12:23.991Z,12.20
2018-09-28T01:14:52.410Z,12.20
2018-09-28T01:17:20.679Z,12.20
2018-09-28T01:19:49.668Z,12.10
2018-09-28T01:22:18.513Z,12.00
2018-09-28T01:24:46.886Z,12.00
2018-09-28T01:29:43.694Z,12.00
2018-09-28T01:32:12.973Z,12.10
2018-09-28T01:34:42.137Z,12.10
2018-09-28T01:37:10.446Z,12.10
2018-09-28T01:39:39.467Z,12.00
2018-09-28T01:42:08.261Z,12.00
2018-09-28T01:44:36.809Z,12.10
2018-09-28T01:47:05.606Z,12.00
2018-09-28T01:49:34.303Z,12.00
2018-09-28T01:52:02.666Z,12.00
2018-09-28T01:54:31.254Z,11.90
2018-09-28T01:56:59.964Z,11.90
2018-09-28T01:59:28.612Z,11.80
2018-09-28T02:01:57.225Z,11.80
2018-09-28T02:04:25.560Z,11.80
2018-09-28T02:06:54.546Z,11.80
2018-09-28T02:09:23.248Z,11.80
2018-09-28T02:11:51.582Z,11.80
2018-09-28T02:14:19.964Z,11.80
2018-09-28T02:16:48.879Z,11.80
2018-09-28T02:19:17.182Z,11.80
2018-09-28T02:21:45.864Z,11.80
2018-09-28T02:24:14.871Z,11.80
2018-09-28T02:26:43.288Z,11.80
2018-09-28T02:29:11.736Z,11.90
2018-09-28T02:31:40.207Z,11.80
2018-09-28T02:34:09.400Z,11.80
2018-09-28T02:36:38.269Z,11.80
2018-09-28T02:39:07.788Z,12.10
2018-09-28T02:44:04.364Z,11.80
2018-09-28T02:46:32.770Z,11.80
2018-09-28T02:49:01.676Z,11.70
2018-09-28T02:51:29.995Z,11.60
2018-09-28T02:53:58.600Z,11.60
2018-09-28T02:56:27.716Z,11.70
2018-09-28T02:58:56.267Z,11.60
2018-09-28T03:01:24.766Z,11.60
2018-09-28T03:03:53.537Z,11.50
2018-09-28T03:06:21.972Z,11.50
2018-09-28T03:08:50.369Z,11.60
2018-09-28T03:11:18.999Z,11.50
2018-09-28T03:13:47.357Z,11.50
2018-09-28T03:16:16.160Z,11.40
2018-09-28T03:18:45.342Z,11.40
2018-09-28T03:21:14.029Z,11.40
2018-09-28T03:23:42.483Z,11.40
2018-09-28T03:26:10.926Z,11.40
2018-09-28T03:28:39.580Z,11.40
2018-09-28T03:31:08.853Z,11.30
2018-09-28T03:33:37.224Z,11.20
2018-09-28T03:36:05.668Z,11.20
2018-09-28T03:38:34.557Z,11.30
2018-09-28T03:41:03.556Z,11.30
2018-09-28T03:43:31.982Z,11.20
2018-09-28T03:46:00.560Z,11.10
2018-09-28T03:48:28.971Z,11.00
2018-09-28T03:50:57.365Z,11.10
2018-09-28T03:53:26.068Z,11.10
2018-09-28T03:55:54.395Z,11.00
2018-09-28T03:58:23.208Z,11.00
2018-09-28T04:00:51.942Z,10.80
2018-09-28T04:03:20.276Z,10.80
2018-09-28T04:08:27.685Z,10.80
2018-09-28T04:10:56.524Z,10.80
2018-09-28T04:13:25.412Z,10.80
2018-09-28T04:15:53.745Z,10.80
2018-09-28T04:18:22.011Z,10.80
2018-09-28T04:20:50.859Z,10.70
2018-09-28T04:25:48.423Z,10.70
2018-09-28T04:28:16.716Z,10.60
2018-09-28T04:30:45.400Z,10.50
2018-09-28T04:33:14.086Z,10.50
2018-09-28T04:35:42.361Z,10.50
2018-09-28T04:38:11.320Z,10.40
2018-09-28T04:43:10.118Z,10.40
2018-09-28T04:45:39.666Z,10.40
2018-09-28T04:48:08.209Z,10.40
2018-09-28T04:50:36.537Z,10.30
2018-09-28T04:53:05.109Z,10.30
2018-09-28T04:55:34.745Z,10.30
2018-09-28T04:58:03.272Z,10.40
2018-09-28T05:00:31.708Z,10.30
2018-09-28T05:02:59.998Z,10.40
2018-09-28T05:05:28.465Z,10.30
2018-09-28T05:07:56.747Z,10.30
2018-09-28T05:10:25.333Z,10.40
2018-09-28T05:12:53.677Z,10.30
2018-09-28T05:15:22.173Z,10.30
2018-09-28T05:17:53.816Z,10.30
2018-09-28T05:20:22.777Z,10.30
2018-09-28T05:22:52.077Z,10.30
2018-09-28T05:25:20.687Z,10.30
2018-09-28T05:27:49.672Z,10.40
2018-09-28T05:30:18.293Z,10.30
2018-09-28T05:32:46.672Z,10.30
2018-09-28T05:35:15.176Z,10.30
2018-09-28T05:37:43.576Z,10.30
2018-09-28T05:40:11.961Z,10.30
2018-09-28T05:42:40.579Z,10.30
2018-09-28T05:45:09.197Z,10.40
2018-09-28T05:47:38.084Z,10.40
2018-09-28T05:50:06.917Z,10.50
2018-09-28T05:52:35.904Z,10.50
2018-09-28T05:55:04.449Z,10.60
2018-09-28T05:57:32.985Z,10.60
2018-09-28T06:00:06.893Z,10.60
2018-09-28T06:02:40.850Z,10.60
2018-09-28T06:05:15.937Z,10.60
2018-09-28T06:07:45.448Z,10.60
2018-09-28T06:10:15.374Z,10.70
2018-09-28T06:12:44.729Z,10.70
2018-09-28T06:15:13.322Z,10.80
2018-09-28T06:17:42.841Z,10.80
2018-09-28T06:20:11.881Z,11.00
2018-09-28T06:22:41.941Z,11.10
2018-09-28T06:25:10.792Z,11.10
2018-09-28T06:27:39.126Z,11.30
2018-09-28T06:30:10.779Z,11.40
2018-09-28T06:32:39.702Z,11.60
2018-09-28T06:35:08.051Z,11.70
2018-09-28T06:37:37.169Z,11.90
2018-09-28T06:40:05.667Z,11.90
2018-09-28T06:42:35.474Z,12.00
2018-09-28T06:45:04.556Z,12.10
2018-09-28T06:47:33.016Z,12.10
2018-09-28T06:50:02.273Z,12.40
2018-09-28T06:52:31.529Z,12.40
2018-09-28T06:54:59.966Z,12.50
2018-09-28T06:57:29.325Z,12.50
2018-09-28T06:59:58.200Z,12.70
2018-09-28T07:02:26.487Z,12.70
2018-09-28T07:04:55.546Z,12.70
2018-09-28T07:07:23.874Z,12.70
2018-09-28T07:09:53.315Z,12.90
2018-09-28T07:12:21.658Z,12.90
2018-09-28T07:14:50.011Z,13.00
2018-09-28T07:17:18.345Z,13.00
2018-09-28T07:19:47.205Z,13.10
2018-09-28T07:22:16.255Z,13.20
2018-09-28T07:24:45.065Z,13.30
2018-09-28T07:27:13.996Z,13.40
2018-09-28T07:29:42.459Z,13.60
2018-09-28T07:32:11.871Z,13.60
2018-09-28T07:34:40.482Z,13.60
2018-09-28T07:37:08.893Z,13.80
2018-09-28T07:39:37.217Z,14.00
2018-09-28T07:42:05.584Z,14.10
2018-09-28T07:44:33.905Z,14.20
2018-09-28T07:47:02.209Z,14.30
2018-09-28T07:49:30.963Z,14.40
2018-09-28T07:51:59.297Z,14.50
2018-09-28T07:54:27.749Z,14.50
2018-09-28T07:56:56.954Z,14.60
2018-09-28T07:59:25.478Z,14.60
2018-09-28T08:01:54.760Z,14.80
2018-09-28T08:04:25.035Z,14.80
2018-09-28T08:06:53.538Z,14.90
2018-09-28T08:09:22.987Z,15.20
2018-09-28T08:11:51.630Z,15.30
2018-09-28T08:14:20.223Z,15.40
2018-09-28T08:16:48.720Z,15.60
2018-09-28T08:19:17.634Z,15.60
2018-09-28T08:21:46.263Z,15.70
2018-09-28T08:24:15.433Z,15.90
2018-09-28T08:26:44.497Z,16.00
2018-09-28T08:29:13.533Z,16.10
2018-09-28T08:31:42.077Z,16.30
2018-09-28T08:34:10.600Z,16.30
2018-09-28T08:39:17.193Z,16.40
2018-09-28T08:41:45.866Z,16.60
2018-09-28T08:44:14.192Z,16.60
2018-09-28T08:46:42.718Z,16.70
2018-09-28T08:49:11.186Z,16.90
2018-09-28T08:51:39.552Z,17.00
2018-09-28T08:54:08.216Z,17.20
2018-09-28T08:56:38.719Z,17.20
2018-09-28T08:59:07.345Z,17.30
2018-09-28T09:01:38.722Z,17.50
2018-09-28T09:04:07.113Z,17.50
2018-09-28T09:06:35.585Z,17.60
2018-09-28T09:09:07.379Z,17.60
2018-09-28T09:11:36.034Z,17.70
2018-09-28T09:14:04.372Z,17.80
2018-09-28T09:16:34.026Z,18.00
2018-09-28T09:19:02.849Z,18.00
2018-09-28T09:21:31.419Z,18.10
2018-09-28T09:24:00.059Z,18.10
2018-09-28T09:26:28.315Z,18.30
2018-09-28T09:28:57.262Z,18.30
2018-09-28T09:31:26.269Z,18.30
2018-09-28T09:33:54.551Z,18.40
2018-09-28T09:36:23.731Z,18.40
2018-09-28T09:38:52.697Z,18.60
2018-09-28T09:41:21.984Z,18.50
2018-09-28T09:43:51.749Z,18.50
2018-09-28T09:46:20.055Z,18.40
2018-09-28T09:48:48.652Z,18.50
2018-09-28T09:51:18.165Z,18.50
2018-09-28T09:53:46.860Z,18.60
2018-09-28T09:56:15.303Z,18.40
2018-09-28T09:58:43.811Z,18.60
2018-09-28T10:02:19.836Z,18.80
2018-09-28T10:04:49.251Z,18.60
2018-09-28T10:07:18.542Z,19.00
2018-09-28T10:09:47.071Z,19.20
2018-09-28T10:12:15.360Z,19.20
2018-09-28T10:14:43.606Z,19.20
2018-09-28T10:17:12.010Z,19.30
2018-09-28T10:19:40.505Z,20.00
2018-09-28T10:22:08.844Z,19.80
2018-09-28T10:24:37.533Z,19.80
2018-09-28T10:27:06.818Z,20.10
2018-09-28T10:29:35.833Z,20.30
2018-09-28T10:32:04.298Z,20.20
2018-09-28T10:34:32.756Z,20.30
2018-09-28T10:37:01.061Z,20.20
2018-09-28T10:41:57.723Z,20.30
2018-09-28T10:44:26.412Z,20.50
2018-09-28T10:46:55.241Z,20.60
2018-09-28T10:49:24.995Z,20.70
2018-09-28T10:51:53.547Z,20.50
2018-09-28T10:54:21.848Z,20.50
2018-09-28T10:56:51.210Z,20.50
2018-09-28T10:59:19.854Z,20.60
2018-09-28T11:01:49.682Z,20.70
2018-09-28T11:04:18.806Z,20.80
2018-09-28T11:06:48.022Z,20.90
2018-09-28T11:09:17.698Z,20.90
2018-09-28T11:11:46.116Z,20.90
2018-09-28T11:14:15.068Z,19.50
2018-09-28T11:16:43.412Z,20.90
2018-09-28T11:19:12.120Z,21.30
2018-09-28T11:21:42.220Z,21.30
2018-09-28T11:24:10.797Z,20.80
2018-09-28T11:26:39.113Z,21.00
2018-09-28T11:29:07.525Z,21.00
2018-09-28T11:31:35.926Z,21.50
2018-09-28T11:34:04.411Z,21.50
2018-09-28T11:36:34.018Z,21.50
2018-09-28T11:39:02.810Z,21.20
2018-09-28T11:41:32.223Z,21.20
2018-09-28T11:44:01.578Z,21.10
2018-09-28T11:46:29.866Z,21.20
2018-09-28T11:48:59.084Z,21.30
2018-09-28T11:51:27.616Z,21.50
2018-09-28T11:53:55.993Z,21.50
2018-09-28T11:56:24.386Z,21.50
2018-09-28T11:58:53.883Z,21.40
2018-09-28T12:01:22.534Z,21.40
2018-09-28T12:03:50.980Z,21.20
2018-09-28T12:06:19.927Z,21.20
2018-09-28T12:08:48.178Z,21.30
2018-09-28T12:11:16.517Z,21.40
2018-09-28T12:13:45.454Z,21.50
2018-09-28T12:16:13.726Z,21.50
2018-09-28T12:18:42.094Z,21.70
2018-09-28T12:21:10.408Z,21.90
2018-09-28T12:23:38.786Z,22.00
2018-09-28T12:26:08.400Z,23.30
2018-09-28T12:28:36.695Z,22.00
2018-09-28T12:31:05.200Z,22.10
2018-09-28T12:33:33.856Z,22.10
2018-09-28T12:36:02.398Z,22.10
2018-09-28T12:38:32.926Z,22.40
2018-09-28T12:41:01.986Z,22.40
2018-09-28T12:43:35.031Z,22.20
2018-09-28T12:45:59.496Z,21.90
2018-09-28T12:48:27.930Z,22.00
2018-09-28T12:50:56.080Z,22.00
2018-09-28T12:53:25.158Z,22.10
2018-09-28T12:55:53.435Z,22.50
2018-09-28T12:58:23.624Z,22.70
2018-09-28T13:00:52.257Z,22.40
2018-09-28T13:03:22.937Z,22.40
2018-09-28T13:05:51.419Z,22.90
2018-09-28T13:08:19.756Z,22.50
2018-09-28T13:10:48.237Z,23.10
2018-09-28T13:13:17.405Z,23.10
2018-09-28T13:15:46.527Z,23.80
2018-09-28T13:18:15.286Z,23.80
2018-09-28T13:20:44.305Z,24.10
2018-09-28T13:23:13.183Z,24.20
2018-09-28T13:25:42.023Z,24.70
2018-09-28T13:28:10.444Z,24.50
2018-09-28T13:30:40.761Z,24.70
2018-09-28T13:33:10.285Z,25.40
2018-09-28T13:35:40.465Z,26.10
2018-09-28T13:38:09.426Z,26.50
2018-09-28T13:40:42.554Z,27.50
2018-09-28T13:43:14.086Z,27.70
2018-09-28T13:45:44.817Z,29.00
2018-09-28T13:48:13.535Z,29.00
2018-09-28T13:50:42.154Z,29.50
2018-09-28T13:53:10.806Z,29.50
2018-09-28T13:55:39.975Z,29.70
2018-09-28T13:58:09.884Z,29.50
2018-09-28T14:00:40.001Z,29.00
2018-09-28T14:03:10.315Z,28.90
2018-09-28T14:05:40.896Z,28.70
2018-09-28T14:08:11.072Z,28.30
2018-09-28T14:10:41.591Z,28.90
2018-09-28T14:13:11.745Z,28.70
2018-09-28T14:15:41.248Z,28.50
2018-09-28T14:18:09.959Z,27.00
2018-09-28T14:20:38.568Z,27.00
2018-09-28T14:23:07.722Z,26.30
2018-09-28T14:25:36.874Z,26.50
2018-09-28T14:28:05.613Z,26.60
2018-09-28T14:30:34.045Z,27.00
2018-09-28T14:33:03.472Z,27.80
2018-09-28T14:35:32.968Z,28.20
2018-09-28T14:38:02.161Z,27.80
2018-09-28T14:40:31.068Z,27.90
2018-09-28T14:43:02.502Z,28.00
2018-09-28T14:45:31.279Z,28.00
2018-09-28T14:48:01.371Z,28.20
2018-09-28T14:50:30.678Z,27.60
2018-09-28T14:52:59.560Z,27.10
2018-09-28T14:55:29.058Z,26.90
2018-09-28T14:57:57.426Z,27.10
2018-09-28T15:00:26.758Z,27.10
2018-09-28T15:02:55.771Z,27.20
2018-09-28T15:05:25.743Z,27.90
2018-09-28T15:07:55.111Z,28.20
2018-09-28T15:10:24.548Z,28.20
2018-09-28T15:12:52.860Z,27.80
2018-09-28T15:15:24.224Z,27.80
2018-09-28T15:17:53.901Z,27.60
2018-09-28T15:20:22.581Z,27.70
2018-09-28T15:22:51.568Z,26.90
2018-09-28T15:25:20.323Z,26.60
2018-09-28T15:27:48.891Z,26.50
2018-09-28T15:30:18.441Z,26.50
2018-09-28T15:32:48.465Z,26.40
2018-09-28T15:35:16.940Z,26.30
2018-09-28T15:37:45.544Z,26.10
2018-09-28T15:40:14.321Z,26.10
2018-09-28T15:42:44.522Z,26.10
2018-09-28T15:45:15.350Z,25.80
2018-09-28T15:47:45.236Z,25.70
2018-09-28T15:52:42.464Z,25.60
2018-09-28T15:55:11.195Z,25.20
2018-09-28T15:57:41.573Z,25.10
2018-09-28T16:00:11.243Z,24.90
2018-09-28T16:02:41.854Z,24.30
2018-09-28T16:05:12.557Z,24.20
2018-09-28T16:07:42.298Z,24.20
2018-09-28T16:10:14.055Z,24.00
2018-09-28T16:12:42.474Z,23.00
2018-09-28T16:15:11.166Z,23.00
2018-09-28T16:17:42.044Z,22.50
2018-09-28T16:20:11.937Z,22.40
2018-09-28T16:22:41.896Z,21.60
2018-09-28T16:25:13.101Z,21.20
2018-09-28T16:27:42.327Z,21.20
2018-09-28T16:30:10.959Z,20.80
2018-09-28T16:32:39.599Z,20.60
2018-09-28T16:35:08.808Z,20.10
2018-09-28T16:37:38.827Z,20.20
2018-09-28T16:40:08.230Z,19.90
2018-09-28T16:45:09.115Z,19.70
2018-09-28T16:47:40.077Z,19.60
2018-09-28T16:52:43.517Z,19.40
2018-09-28T16:55:11.892Z,19.30
2018-09-28T16:57:40.993Z,19.20
2018-09-28T17:00:09.601Z,19.20
2018-09-28T17:02:38.979Z,19.10
2018-09-28T17:05:09.125Z,19.00
2018-09-28T17:07:38.665Z,19.00
2018-09-28T17:10:07.466Z,18.80
2018-09-28T17:12:37.267Z,18.80
2018-09-28T17:15:07.747Z,18.70
2018-09-28T17:17:36.737Z,18.60
2018-09-28T17:20:05.797Z,18.60
2018-09-28T17:22:36.452Z,18.60
2018-09-28T17:25:06.189Z,18.50
2018-09-28T17:27:35.133Z,18.40
2018-09-28T17:30:04.168Z,18.30
2018-09-28T17:32:33.525Z,18.20
2018-09-28T17:35:04.606Z,18.20
2018-09-28T17:37:33.529Z,18.10
2018-09-28T17:42:33.025Z,18.00
2018-09-28T17:45:03.060Z,18.00
2018-09-28T17:47:33.305Z,18.00
2018-09-28T17:50:03.933Z,17.90
2018-09-28T17:52:34.869Z,17.90
2018-09-28T17:55:06.249Z,17.90
2018-09-28T17:57:35.081Z,17.80
2018-09-28T18:00:03.582Z,17.70
2018-09-28T18:02:35.179Z,17.60
2018-09-28T18:05:03.926Z,17.50
2018-09-28T18:07:35.698Z,17.40
2018-09-28T18:10:04.068Z,17.30
2018-09-28T18:12:35.375Z,17.30
2018-09-28T18:15:04.012Z,17.10
2018-09-28T18:17:34.192Z,17.10
2018-09-28T18:20:07.373Z,17.00
2018-09-28T18:22:35.782Z,16.90
2018-09-28T18:25:06.823Z,16.90
2018-09-28T18:27:39.441Z,16.80
2018-09-28T18:30:12.813Z,16.70
2018-09-28T18:35:13.635Z,16.50
2018-09-28T18:42:43.754Z,16.20
2018-09-28T18:45:14.363Z,16.00
2018-09-28T18:50:12.853Z,16.00
2018-09-28T18:52:41.913Z,16.00
2018-09-28T18:55:10.467Z,15.80
2018-09-28T18:57:40.353Z,15.70
2018-09-28T19:00:10.055Z,15.70
2018-09-28T19:02:39.969Z,15.60
2018-09-28T19:05:09.923Z,15.60
2018-09-28T19:07:38.306Z,15.40
2018-09-28T19:10:09.341Z,15.40
2018-09-28T19:12:38.367Z,15.30
2018-09-28T19:15:08.286Z,15.20
2018-09-28T19:17:38.281Z,16.40
2018-09-28T19:20:06.810Z,15.20
2018-09-28T19:22:36.858Z,15.30
2018-09-28T19:25:07.064Z,15.20
2018-09-28T19:27:37.741Z,15.10
2018-09-28T19:30:06.729Z,15.10
2018-09-28T19:32:35.450Z,15.00
2018-09-28T19:37:36.689Z,14.90
2018-09-28T19:40:05.669Z,14.90
2018-09-28T19:42:37.074Z,14.90
2018-09-28T19:45:07.092Z,14.90
2018-09-28T19:47:37.802Z,14.80
2018-09-28T19:50:14.370Z,14.70
2018-09-28T19:52:46.651Z,14.70
2018-09-28T19:55:15.911Z,14.70
2018-09-28T19:57:45.544Z,14.70
2018-09-28T20:00:18.570Z,14.60
2018-09-28T20:02:46.837Z,14.60
2018-09-28T20:05:16.692Z,14.60
2018-09-28T20:07:46.599Z,14.50
2018-09-28T20:10:16.120Z,14.40
2018-09-28T20:12:47.160Z,14.40
2018-09-28T20:15:18.400Z,14.40
2018-09-28T20:17:49.600Z,14.40
2018-09-28T20:22:46.919Z,14.40
2018-09-28T20:25:16.551Z,14.30
2018-09-28T20:27:47.268Z,14.30
2018-09-28T20:30:16.646Z,14.20
2018-09-28T20:32:46.408Z,14.10
2018-09-28T20:35:14.785Z,14.00
2018-09-28T20:37:44.396Z,14.00
2018-09-28T20:40:13.470Z,13.90
2018-09-28T20:42:42.666Z,13.80
2018-09-28T20:45:11.788Z,13.80
2018-09-28T20:47:40.414Z,13.80
2018-09-28T20:50:08.702Z,13.70
2018-09-28T20:52:37.025Z,13.70
2018-09-28T20:55:05.768Z,13.50
2018-09-28T20:57:34.134Z,13.50
2018-09-28T21:00:02.607Z,13.50
2018-09-28T21:02:31.299Z,13.40
2018-09-28T21:04:59.629Z,13.40
2018-09-28T21:07:27.941Z,13.40
2018-09-28T21:09:56.338Z,13.30
2018-09-28T21:12:24.940Z,13.30
2018-09-28T21:14:53.547Z,13.40
2018-09-28T21:17:22.248Z,13.40
2018-09-28T21:19:50.653Z,13.50
2018-09-28T21:22:19.030Z,13.50
2018-09-28T21:24:47.803Z,13.50
2018-09-28T21:27:16.039Z,13.50
2018-09-28T21:29:44.475Z,13.80
2018-09-28T21:32:12.798Z,13.50
2018-09-28T21:34:41.356Z,13.50
2018-09-28T21:37:09.671Z,13.60
2018-09-28T21:39:38.281Z,13.70
2018-09-28T21:42:06.660Z,13.80
2018-09-28T21:44:35.075Z,14.10
2018-09-28T21:47:03.350Z,14.00
2018-09-28T21:49:32.655Z,14.00
2018-09-28T21:52:00.920Z,13.90
2018-09-28T21:54:29.408Z,13.80
2018-09-28T21:56:58.341Z,13.60
2018-09-28T21:59:26.593Z,13.50
2018-09-28T22:01:54.957Z,13.40
2018-09-28T22:04:23.556Z,13.40
2018-09-28T22:06:51.799Z,13.40
2018-09-28T22:09:20.492Z,13.40
2018-09-28T22:11:48.783Z,13.30
2018-09-28T22:14:17.197Z,13.30
2018-09-28T22:16:45.601Z,13.10
2018-09-28T22:19:14.018Z,13.20
2018-09-28T22:21:42.308Z,13.30
2018-09-28T22:24:10.610Z,13.20
2018-09-28T22:26:38.971Z,13.20
2018-09-28T22:29:07.652Z,13.10
2018-09-28T22:31:35.983Z,13.10
2018-09-28T22:34:04.277Z,13.10
2018-09-28T22:36:32.608Z,13.10
2018-09-28T22:39:00.851Z,13.10
2018-09-28T22:41:29.173Z,13.10
2018-09-28T22:43:57.448Z,13.10
2018-09-28T22:46:25.993Z,13.00
2018-09-28T22:48:54.291Z,13.00
2018-09-28T22:51:22.671Z,12.90
2018-09-28T22:53:51.404Z,12.90
2018-09-28T22:56:19.986Z,12.90
2018-09-28T22:58:49.050Z,12.90
2018-09-28T23:01:17.360Z,12.90
2018-09-28T23:03:46.137Z,12.90
2018-09-28T23:06:14.717Z,13.40
2018-09-28T23:08:43.844Z,12.80
2018-09-28T23:11:12.652Z,12.80
2018-09-28T23:13:41.504Z,12.80
2018-09-28T23:16:10.463Z,12.80
2018-09-28T23:18:38.840Z,12.80
2018-09-28T23:21:07.116Z,12.80
2018-09-28T23:23:35.328Z,12.80
2018-09-28T23:26:03.674Z,12.80
2018-09-28T23:28:32.050Z,12.80
2018-09-28T23:31:00.607Z,12.80
2018-09-28T23:33:28.924Z,12.80
2018-09-28T23:35:57.609Z,12.80
2018-09-28T23:38:26.201Z,12.90
2018-09-28T23:40:54.573Z,12.80
2018-09-28T23:43:22.952Z,12.80
2018-09-28T23:45:51.867Z,12.70
2018-09-28T23:48:20.218Z,13.50
2018-09-28T23:50:48.608Z,12.70
2018-09-28T23:53:16.962Z,12.70
2018-09-28T23:55:45.352Z,12.70
2018-09-28T23:58:13.755Z,12.70
